createdAt,value
2023-04-13T00:01:11.474Z,100.00
2023-04-13T00:03:39.571Z,100.00
2023-04-13T00:06:10.730Z,100.00
2023-04-13T00:08:37.752Z,100.00
2023-04-13T00:11:05.698Z,100.00
2023-04-13T00:13:37.219Z,100.00
2023-04-13T00:16:05.873Z,100.00
2023-04-13T00:18:32.475Z,100.00
2023-04-13T00:21:00.218Z,100.00
2023-04-13T00:23:27.122Z,100.00
2023-04-13T00:25:53.849Z,100.00
2023-04-13T00:28:20.620Z,100.00
2023-04-13T00:30:47.425Z,100.00
2023-04-13T00:33:14.256Z,100.00
2023-04-13T00:35:41.717Z,100.00
2023-04-13T00:38:08.834Z,100.00
2023-04-13T00:40:37.809Z,100.00
2023-04-13T00:43:05.756Z,100.00
2023-04-13T00:45:37.877Z,100.00
2023-04-13T00:48:05.282Z,100.00
2023-04-13T00:50:34.064Z,100.00
2023-04-13T00:53:04.367Z,100.00
2023-04-13T00:55:31.050Z,100.00
2023-04-13T00:57:58.293Z,100.00
2023-04-13T01:00:26.477Z,100.00
2023-04-13T01:02:53.836Z,100.00
2023-04-13T01:05:21.466Z,100.00
2023-04-13T01:07:51.020Z,100.00
2023-04-13T01:10:42.264Z,100.00
2023-04-13T01:13:17.853Z,100.00
2023-04-13T01:15:52.287Z,100.00
2023-04-13T01:18:20.360Z,100.00
2023-04-13T01:20:47.998Z,100.00
2023-04-13T01:23:53.048Z,100.00
2023-04-13T01:26:22.541Z,100.00
2023-04-13T01:28:51.228Z,100.00
2023-04-13T01:31:18.025Z,100.00
2023-04-13T01:33:46.847Z,100.00
2023-04-13T01:36:14.560Z,100.00
2023-04-13T01:38:41.221Z,100.00
2023-04-13T01:41:08.718Z,100.00
2023-04-13T01:43:35.876Z,100.00
2023-04-13T01:46:15.623Z,100.00
2023-04-13T01:48:46.042Z,100.00
2023-04-13T01:51:34.375Z,100.00
2023-04-13T01:54:12.830Z,100.00
2023-04-13T01:56:40.474Z,100.00
2023-04-13T01:59:07.646Z,100.00
2023-04-13T02:01:37.667Z,100.00
2023-04-13T02:04:05.341Z,100.00
2023-04-13T02:06:32.065Z,100.00
2023-04-13T02:08:59.326Z,100.00
2023-04-13T02:11:27.455Z,100.00
2023-04-13T02:13:57.497Z,100.00
2023-04-13T02:16:25.238Z,100.00
2023-04-13T02:18:52.004Z,100.00
2023-04-13T02:21:18.742Z,100.00
2023-04-13T02:23:45.981Z,100.00
2023-04-13T02:26:13.803Z,100.00
2023-04-13T02:28:40.769Z,100.00
2023-04-13T02:31:07.490Z,100.00
2023-04-13T02:33:35.657Z,100.00
2023-04-13T02:36:04.145Z,100.00
2023-04-13T02:38:31.949Z,100.00
2023-04-13T02:40:59.402Z,100.00
2023-04-13T02:43:29.003Z,100.00
2023-04-13T02:45:56.294Z,100.00
2023-04-13T02:48:23.648Z,100.00
2023-04-13T02:50:51.116Z,100.00
2023-04-13T02:53:17.957Z,100.00
2023-04-13T02:55:44.692Z,100.00
2023-04-13T02:58:12.248Z,100.00
2023-04-13T03:00:39.813Z,100.00
2023-04-13T03:03:06.920Z,100.00
2023-04-13T03:05:33.886Z,100.00
2023-04-13T03:08:00.824Z,100.00
2023-04-13T03:10:27.561Z,100.00
2023-04-13T03:12:54.970Z,100.00
2023-04-13T03:15:21.884Z,100.00
2023-04-13T03:17:48.757Z,100.00
2023-04-13T03:20:16.949Z,100.00
2023-04-13T03:22:45.316Z,100.00
2023-04-13T03:25:12.668Z,100.00
2023-04-13T03:27:39.605Z,100.00
2023-04-13T03:30:07.602Z,100.00
2023-04-13T03:32:34.488Z,100.00
2023-04-13T03:35:01.319Z,100.00
2023-04-13T03:37:30.344Z,100.00
2023-04-13T03:39:58.392Z,100.00
2023-04-13T03:42:25.101Z,100.00
2023-04-13T03:44:51.769Z,100.00
2023-04-13T03:47:18.426Z,100.00
2023-04-13T03:49:45.064Z,100.00
2023-04-13T03:52:11.693Z,100.00
2023-04-13T03:54:40.259Z,100.00
2023-04-13T03:57:07.269Z,100.00
2023-04-13T03:59:34.081Z,100.00
2023-04-13T04:02:03.001Z,100.00
2023-04-13T04:04:29.875Z,100.00
2023-04-13T04:06:58.217Z,100.00
2023-04-13T04:09:25.612Z,100.00
2023-04-13T04:11:52.431Z,100.00
2023-04-13T04:14:20.425Z,100.00
2023-04-13T04:16:50.617Z,100.00
2023-04-13T04:19:17.312Z,100.00
2023-04-13T04:21:46.920Z,100.00
2023-04-13T04:24:23.528Z,100.00
2023-04-13T04:26:50.820Z,100.00
2023-04-13T04:29:17.858Z,100.00
2023-04-13T04:31:44.645Z,100.00
2023-04-13T04:34:11.665Z,100.00
2023-04-13T04:36:41.724Z,100.00
2023-04-13T04:39:10.052Z,100.00
2023-04-13T04:41:37.734Z,100.00
2023-04-13T04:44:08.220Z,100.00
2023-04-13T04:46:38.626Z,100.00
2023-04-13T04:49:05.369Z,100.00
2023-04-13T04:51:32.172Z,100.00
2023-04-13T04:54:01.590Z,100.00
2023-04-13T04:56:28.973Z,100.00
2023-04-13T04:58:55.716Z,100.00
2023-04-13T05:01:26.462Z,100.00
2023-04-13T05:03:53.570Z,100.00
2023-04-13T05:06:20.225Z,100.00
2023-04-13T05:08:47.013Z,100.00
2023-04-13T05:11:13.646Z,100.00
2023-04-13T05:13:40.456Z,100.00
2023-04-13T05:16:07.754Z,100.00
2023-04-13T05:18:43.857Z,100.00
2023-04-13T05:21:10.525Z,100.00
2023-04-13T05:23:37.335Z,100.00
2023-04-13T05:26:04.149Z,100.00
2023-04-13T05:28:30.852Z,100.00
2023-04-13T05:31:04.867Z,100.00
2023-04-13T05:33:31.706Z,100.00
2023-04-13T05:35:58.301Z,100.00
2023-04-13T05:38:24.921Z,100.00
2023-04-13T05:40:52.507Z,100.00
2023-04-13T05:43:20.470Z,100.00
2023-04-13T05:45:48.649Z,100.00
2023-04-13T05:48:15.775Z,100.00
2023-04-13T05:50:43.604Z,100.00
2023-04-13T05:53:10.714Z,100.00
2023-04-13T05:55:37.320Z,100.00
2023-04-13T05:58:03.985Z,100.00
2023-04-13T06:00:30.986Z,100.00
2023-04-13T06:02:59.533Z,100.00
2023-04-13T06:05:26.534Z,100.00
2023-04-13T06:07:53.912Z,100.00
2023-04-13T06:10:20.724Z,100.00
2023-04-13T06:12:48.721Z,100.00
2023-04-13T06:15:15.634Z,100.00
2023-04-13T06:17:42.334Z,100.00
2023-04-13T06:20:10.793Z,100.00
2023-04-13T06:22:40.431Z,100.00
2023-04-13T06:25:08.527Z,100.00
2023-04-13T06:27:35.172Z,100.00
2023-04-13T06:30:02.652Z,100.00
2023-04-13T06:32:29.635Z,100.00
2023-04-13T06:34:56.374Z,100.00
2023-04-13T06:37:23.665Z,100.00
2023-04-13T06:39:50.306Z,100.00
2023-04-13T06:42:18.792Z,100.00
2023-04-13T06:44:45.593Z,100.00
2023-04-13T06:47:12.392Z,100.00
2023-04-13T06:49:39.107Z,100.00
2023-04-13T06:52:06.441Z,100.00
2023-04-13T06:54:33.504Z,100.00
2023-04-13T06:57:02.086Z,100.00
2023-04-13T06:59:28.848Z,100.00
2023-04-13T07:01:55.805Z,100.00
2023-04-13T07:04:25.162Z,100.00
2023-04-13T07:06:54.085Z,100.00
2023-04-13T07:09:20.708Z,100.00
2023-04-13T07:11:47.355Z,100.00
2023-04-13T07:14:14.117Z,100.00
2023-04-13T07:16:40.990Z,100.00
2023-04-13T07:19:07.663Z,100.00
2023-04-13T07:21:35.352Z,100.00
2023-04-13T07:24:01.944Z,100.00
2023-04-13T07:26:28.665Z,100.00
2023-04-13T07:28:55.641Z,100.00
2023-04-13T07:31:22.783Z,100.00
2023-04-13T07:33:49.479Z,100.00
2023-04-13T07:36:16.354Z,100.00
2023-04-13T07:38:43.048Z,100.00
2023-04-13T07:41:09.699Z,100.00
2023-04-13T07:43:37.339Z,100.00
2023-04-13T07:46:11.844Z,100.00
2023-04-13T07:48:38.612Z,100.00
2023-04-13T07:51:05.669Z,100.00
2023-04-13T07:53:32.304Z,100.00
2023-04-13T07:55:58.965Z,100.00
2023-04-13T07:58:25.647Z,100.00
2023-04-13T08:00:52.354Z,100.00
2023-04-13T08:03:19.287Z,100.00
2023-04-13T08:05:47.259Z,100.00
2023-04-13T08:08:14.124Z,100.00
2023-04-13T08:10:40.901Z,100.00
2023-04-13T08:13:07.810Z,100.00
2023-04-13T08:15:34.506Z,100.00
2023-04-13T08:18:01.379Z,100.00
2023-04-13T08:20:29.379Z,100.00
2023-04-13T08:22:56.060Z,100.00
2023-04-13T08:25:22.765Z,100.00
2023-04-13T08:27:49.555Z,100.00
2023-04-13T08:30:16.327Z,100.00
2023-04-13T08:32:43.007Z,100.00
2023-04-13T08:35:10.428Z,100.00
2023-04-13T08:37:38.550Z,100.00
2023-04-13T08:40:07.823Z,100.00
2023-04-13T08:42:34.759Z,100.00
2023-04-13T08:45:03.684Z,100.00
2023-04-13T08:47:30.902Z,100.00
2023-04-13T08:49:59.560Z,100.00
2023-04-13T08:52:27.589Z,100.00
2023-04-13T08:54:56.181Z,100.00
2023-04-13T08:57:23.281Z,100.00
2023-04-13T08:59:52.544Z,97.41
2023-04-13T09:02:28.583Z,94.34
2023-04-13T09:04:59.779Z,89.54
2023-04-13T09:07:32.441Z,85.56
2023-04-13T09:10:00.447Z,93.70
2023-04-13T09:12:28.709Z,93.76
2023-04-13T09:14:55.668Z,89.14
2023-04-13T09:17:29.611Z,89.61
2023-04-13T09:19:57.466Z,88.88
2023-04-13T09:22:26.090Z,88.08
2023-04-13T09:24:52.900Z,88.81
2023-04-13T09:27:23.472Z,86.99
2023-04-13T09:29:51.692Z,88.51
2023-04-13T09:32:26.006Z,84.02
2023-04-13T09:35:08.143Z,80.45
2023-04-13T09:37:36.746Z,84.15
2023-04-13T09:40:14.463Z,86.51
2023-04-13T09:42:42.481Z,85.13
2023-04-13T09:45:09.636Z,83.26
2023-04-13T09:47:38.566Z,79.07
2023-04-13T09:50:05.765Z,76.13
2023-04-13T09:52:33.119Z,78.10
2023-04-13T09:54:59.771Z,76.49
2023-04-13T09:57:31.281Z,77.05
2023-04-13T10:00:01.347Z,74.73
2023-04-13T10:02:28.786Z,75.80
2023-04-13T10:04:55.983Z,75.07
2023-04-13T10:07:26.796Z,75.91
2023-04-13T10:09:54.144Z,75.09
2023-04-13T10:12:20.925Z,76.55
2023-04-13T10:14:48.881Z,77.23
2023-04-13T10:17:31.622Z,76.91
2023-04-13T10:20:01.865Z,75.46
2023-04-13T10:22:29.453Z,79.29
2023-04-13T10:24:56.183Z,70.48
2023-04-13T10:27:23.542Z,64.90
2023-04-13T10:29:50.445Z,62.10
2023-04-13T10:32:27.738Z,63.09
2023-04-13T10:34:55.011Z,60.57
2023-04-13T10:37:24.183Z,62.37
2023-04-13T10:40:06.314Z,61.38
2023-04-13T10:45:21.373Z,64.05
2023-04-13T10:47:48.396Z,63.60
2023-04-13T10:50:23.406Z,59.96
2023-04-13T10:53:00.752Z,62.62
2023-04-13T10:55:27.791Z,61.50
2023-04-13T10:57:56.481Z,64.36
2023-04-13T11:00:34.683Z,62.13
2023-04-13T11:03:06.595Z,62.30
2023-04-13T11:05:33.399Z,63.57
2023-04-13T11:08:00.105Z,60.58
2023-04-13T11:10:27.829Z,61.61
2023-04-13T11:12:56.597Z,61.89
2023-04-13T11:15:24.204Z,63.89
2023-04-13T11:17:54.808Z,62.48
2023-04-13T11:20:32.694Z,66.29
2023-04-13T11:23:02.333Z,61.69
2023-04-13T11:25:30.647Z,61.94
2023-04-13T11:27:59.174Z,62.96
2023-04-13T11:30:26.189Z,59.46
2023-04-13T11:32:56.327Z,61.76
2023-04-13T11:35:23.476Z,61.56
2023-04-13T11:37:52.986Z,61.76
2023-04-13T11:40:25.556Z,59.36
2023-04-13T11:42:56.945Z,59.85
2023-04-13T11:45:25.878Z,56.65
2023-04-13T11:47:53.680Z,59.74
2023-04-13T11:50:21.510Z,57.12
2023-04-13T11:52:49.996Z,57.15
2023-04-13T11:55:23.372Z,59.20
2023-04-13T11:57:51.548Z,56.94
2023-04-13T12:00:24.664Z,57.88
2023-04-13T12:05:28.498Z,57.36
2023-04-13T12:07:56.310Z,57.38
2023-04-13T12:10:38.520Z,58.46
2023-04-13T12:13:20.304Z,59.11
2023-04-13T12:16:06.142Z,57.20
2023-04-13T12:18:46.252Z,56.06
2023-04-13T12:21:18.001Z,57.55
2023-04-13T12:24:11.543Z,59.01
2023-04-13T12:29:09.893Z,59.80
2023-04-13T12:31:37.905Z,59.28
2023-04-13T12:34:06.085Z,58.54
2023-04-13T12:36:36.209Z,58.97
2023-04-13T12:39:04.394Z,57.71
2023-04-13T12:41:32.358Z,59.09
2023-04-13T12:43:59.035Z,58.08
2023-04-13T12:46:26.759Z,61.58
2023-04-13T12:48:54.011Z,58.86
2023-04-13T12:51:20.791Z,60.86
2023-04-13T12:53:48.078Z,59.64
2023-04-13T12:56:16.048Z,57.06
2023-04-13T12:58:43.217Z,58.05
2023-04-13T13:01:10.576Z,55.73
2023-04-13T13:03:37.365Z,54.77
2023-04-13T13:06:05.561Z,52.24
2023-04-13T13:08:35.462Z,53.56
2023-04-13T13:11:04.441Z,56.21
2023-04-13T13:13:31.113Z,55.76
2023-04-13T13:15:57.756Z,52.64
2023-04-13T13:18:30.092Z,52.91
2023-04-13T13:21:02.101Z,55.73
2023-04-13T13:23:28.678Z,52.07
2023-04-13T13:26:17.383Z,54.81
2023-04-13T13:28:44.349Z,54.39
2023-04-13T13:31:12.796Z,54.01
2023-04-13T13:33:39.503Z,56.15
2023-04-13T13:36:07.608Z,55.16
2023-04-13T13:38:35.834Z,52.32
2023-04-13T13:41:04.944Z,52.42
2023-04-13T13:43:31.574Z,51.55
2023-04-13T13:45:58.452Z,49.31
2023-04-13T13:48:25.239Z,53.10
2023-04-13T13:50:51.892Z,51.08
2023-04-13T13:53:18.621Z,53.93
2023-04-13T13:55:45.340Z,49.35
2023-04-13T13:58:12.039Z,49.82
2023-04-13T14:00:39.507Z,48.39
2023-04-13T14:03:06.379Z,49.89
2023-04-13T14:05:33.242Z,50.89
2023-04-13T14:07:59.911Z,48.56
2023-04-13T14:10:26.669Z,52.06
2023-04-13T14:12:55.344Z,50.41
2023-04-13T14:15:22.476Z,50.38
2023-04-13T14:18:02.547Z,50.25
2023-04-13T14:20:38.624Z,47.33
2023-04-13T14:23:05.761Z,50.29
2023-04-13T14:25:32.549Z,49.36
2023-04-13T14:27:59.144Z,50.20
2023-04-13T14:30:27.894Z,50.02
2023-04-13T14:32:54.970Z,50.77
2023-04-13T14:35:21.805Z,48.41
2023-04-13T14:37:48.488Z,47.62
2023-04-13T14:40:17.328Z,48.65
2023-04-13T14:42:44.362Z,48.22
2023-04-13T14:45:12.397Z,48.34
2023-04-13T14:47:42.509Z,50.92
2023-04-13T14:50:09.946Z,51.80
2023-04-13T14:52:36.774Z,50.78
2023-04-13T14:55:04.543Z,50.53
2023-04-13T14:57:32.381Z,50.31
2023-04-13T14:59:59.008Z,48.91
2023-04-13T15:02:28.226Z,47.86
2023-04-13T15:04:55.891Z,48.19
2023-04-13T15:07:29.900Z,50.10
2023-04-13T15:09:58.083Z,49.14
2023-04-13T15:12:25.021Z,50.24
2023-04-13T15:14:51.639Z,49.34
2023-04-13T15:17:18.377Z,49.10
2023-04-13T15:19:44.997Z,49.66
2023-04-13T15:22:11.590Z,49.54
2023-04-13T15:24:38.209Z,50.59
2023-04-13T15:27:04.908Z,49.94
2023-04-13T15:29:35.515Z,48.24
2023-04-13T15:32:02.487Z,48.52
2023-04-13T15:34:30.566Z,48.80
2023-04-13T15:36:59.290Z,48.37
2023-04-13T15:39:26.065Z,50.51
2023-04-13T15:41:54.218Z,49.34
2023-04-13T15:44:21.346Z,49.62
2023-04-13T15:46:48.078Z,51.19
2023-04-13T15:49:14.874Z,51.56
2023-04-13T15:51:41.556Z,54.37
2023-04-13T15:54:08.191Z,55.09
2023-04-13T15:56:35.506Z,55.59
2023-04-13T15:59:04.217Z,54.65
2023-04-13T16:01:44.650Z,54.99
2023-04-13T16:04:11.919Z,55.57
2023-04-13T16:06:38.579Z,52.24
2023-04-13T16:09:05.473Z,54.96
2023-04-13T16:11:32.372Z,55.29
2023-04-13T16:14:07.148Z,55.25
2023-04-13T16:16:57.345Z,54.25
2023-04-13T16:19:24.161Z,54.77
2023-04-13T16:21:50.979Z,53.50
2023-04-13T16:24:18.710Z,53.75
2023-04-13T16:26:45.780Z,54.05
2023-04-13T16:29:12.414Z,53.39
2023-04-13T16:31:39.226Z,53.63
2023-04-13T16:34:22.130Z,52.03
2023-04-13T16:36:52.280Z,53.32
2023-04-13T16:39:18.959Z,54.75
2023-04-13T16:41:45.777Z,55.10
2023-04-13T16:44:12.438Z,55.39
2023-04-13T16:46:39.285Z,56.51
2023-04-13T16:49:06.223Z,55.33
2023-04-13T16:51:32.888Z,53.33
2023-04-13T16:54:00.206Z,54.10
2023-04-13T16:56:30.229Z,55.48
2023-04-13T16:58:56.981Z,54.99
2023-04-13T17:01:25.582Z,55.15
2023-04-13T17:03:53.338Z,55.78
2023-04-13T17:06:20.652Z,57.11
2023-04-13T17:08:47.480Z,58.23
2023-04-13T17:11:14.377Z,59.36
2023-04-13T17:13:41.392Z,60.28
2023-04-13T17:16:08.749Z,60.02
2023-04-13T17:18:35.492Z,61.41
2023-04-13T17:21:02.424Z,63.63
2023-04-13T17:23:29.148Z,63.25
2023-04-13T17:25:56.764Z,62.23
2023-04-13T17:28:23.969Z,63.75
2023-04-13T17:30:50.878Z,66.65
2023-04-13T17:33:17.603Z,68.04
2023-04-13T17:35:44.384Z,69.21
2023-04-13T17:38:11.089Z,69.56
2023-04-13T17:40:37.767Z,69.59
2023-04-13T17:43:07.443Z,70.18
2023-04-13T17:45:34.168Z,70.61
2023-04-13T17:48:01.078Z,69.47
2023-04-13T17:50:28.048Z,69.56
2023-04-13T17:52:54.846Z,70.95
2023-04-13T17:55:21.574Z,71.20
2023-04-13T17:57:48.214Z,72.06
2023-04-13T18:00:15.341Z,73.37
2023-04-13T18:02:42.305Z,74.23
2023-04-13T18:05:17.923Z,75.36
2023-04-13T18:07:44.862Z,76.72
2023-04-13T18:10:11.646Z,77.68
2023-04-13T18:12:41.459Z,78.27
2023-04-13T18:15:08.959Z,79.50
2023-04-13T18:17:36.841Z,80.70
2023-04-13T18:20:04.169Z,81.09
2023-04-13T18:22:32.191Z,81.93
2023-04-13T18:24:58.839Z,82.72
2023-04-13T18:27:27.314Z,83.66
2023-04-13T18:29:55.025Z,84.64
2023-04-13T18:32:22.734Z,85.25
2023-04-13T18:34:49.921Z,86.37
2023-04-13T18:37:16.773Z,87.57
2023-04-13T18:39:43.560Z,88.40
2023-04-13T18:42:10.455Z,87.44
2023-04-13T18:44:37.361Z,88.27
2023-04-13T18:47:04.213Z,88.25
2023-04-13T18:49:31.170Z,90.12
2023-04-13T18:51:57.941Z,92.21
2023-04-13T18:54:24.790Z,93.69
2023-04-13T18:56:51.473Z,96.35
2023-04-13T18:59:18.266Z,98.97
2023-04-13T19:01:45.866Z,99.15
2023-04-13T19:04:12.815Z,99.65
2023-04-13T19:06:39.889Z,100.00
2023-04-13T19:09:07.037Z,100.00
2023-04-13T19:11:47.863Z,100.00
2023-04-13T19:14:14.770Z,100.00
2023-04-13T19:16:41.639Z,100.00
2023-04-13T19:19:08.616Z,100.00
2023-04-13T19:21:35.343Z,100.00
2023-04-13T19:24:02.198Z,100.00
2023-04-13T19:26:29.518Z,100.00
2023-04-13T19:28:56.181Z,100.00
2023-04-13T19:31:23.230Z,100.00
2023-04-13T19:33:51.533Z,100.00
2023-04-13T19:36:18.239Z,100.00
2023-04-13T19:38:45.368Z,100.00
2023-04-13T19:41:12.580Z,100.00
2023-04-13T19:43:40.749Z,100.00
2023-04-13T19:46:07.565Z,100.00
2023-04-13T19:48:34.517Z,100.00
2023-04-13T19:51:02.032Z,100.00
2023-04-13T19:53:28.826Z,100.00
2023-04-13T19:55:56.814Z,100.00
2023-04-13T19:58:23.442Z,100.00
2023-04-13T20:00:50.149Z,100.00
2023-04-13T20:03:20.269Z,100.00
2023-04-13T20:05:47.889Z,100.00
2023-04-13T20:08:16.031Z,100.00
2023-04-13T20:10:42.706Z,100.00
2023-04-13T20:13:10.302Z,100.00
2023-04-13T20:15:36.978Z,100.00
2023-04-13T20:18:07.052Z,100.00
2023-04-13T20:20:35.668Z,100.00
2023-04-13T20:23:02.370Z,100.00
2023-04-13T20:25:29.414Z,100.00
2023-04-13T20:27:56.168Z,100.00
2023-04-13T20:30:22.911Z,100.00
2023-04-13T20:32:49.544Z,100.00
2023-04-13T20:35:16.373Z,100.00
2023-04-13T20:37:43.009Z,100.00
2023-04-13T20:40:12.563Z,100.00
2023-04-13T20:42:41.921Z,100.00
2023-04-13T20:45:14.707Z,100.00
2023-04-13T20:47:42.624Z,100.00
2023-04-13T20:50:10.481Z,100.00
2023-04-13T20:52:37.094Z,100.00
2023-04-13T20:55:04.083Z,100.00
2023-04-13T20:57:31.107Z,100.00
2023-04-13T20:59:58.321Z,100.00
2023-04-13T21:02:25.140Z,100.00
2023-04-13T21:04:54.144Z,100.00
2023-04-13T21:07:22.270Z,100.00
2023-04-13T21:09:49.003Z,100.00
2023-04-13T21:12:17.037Z,100.00
2023-04-13T21:14:43.838Z,100.00
2023-04-13T21:17:10.537Z,100.00
2023-04-13T21:19:37.936Z,100.00
2023-04-13T21:22:04.740Z,100.00
2023-04-13T21:24:39.664Z,100.00
2023-04-13T21:27:06.567Z,100.00
2023-04-13T21:29:33.520Z,100.00
2023-04-13T21:32:01.501Z,100.00
2023-04-13T21:34:28.828Z,100.00
2023-04-13T21:36:55.586Z,100.00
2023-04-13T21:39:22.243Z,100.00
2023-04-13T21:41:48.922Z,100.00
2023-04-13T21:44:28.668Z,100.00
2023-04-13T21:46:58.666Z,100.00
2023-04-13T21:49:25.561Z,100.00
2023-04-13T21:51:52.234Z,100.00
2023-04-13T21:54:18.972Z,100.00
2023-04-13T21:56:46.049Z,100.00
2023-04-13T21:59:12.835Z,100.00
2023-04-13T22:01:39.501Z,100.00
2023-04-13T22:04:06.569Z,100.00
2023-04-13T22:06:33.569Z,100.00
2023-04-13T22:09:00.905Z,100.00
2023-04-13T22:11:27.917Z,100.00
2023-04-13T22:13:54.625Z,100.00
2023-04-13T22:16:21.289Z,100.00
2023-04-13T22:18:48.279Z,100.00
2023-04-13T22:21:14.953Z,100.00
2023-04-13T22:23:41.809Z,100.00
2023-04-13T22:26:08.505Z,100.00
2023-04-13T22:28:35.253Z,100.00
2023-04-13T22:31:06.965Z,100.00
2023-04-13T22:33:36.244Z,100.00
2023-04-13T22:36:07.384Z,100.00
2023-04-13T22:38:34.123Z,100.00
2023-04-13T22:41:05.425Z,100.00
2023-04-13T22:43:32.172Z,100.00
2023-04-13T22:45:59.740Z,100.00
2023-04-13T22:48:29.964Z,100.00
2023-04-13T22:50:58.017Z,100.00
2023-04-13T22:53:25.940Z,100.00
2023-04-13T22:55:53.484Z,100.00
2023-04-13T22:58:20.193Z,100.00
2023-04-13T23:00:49.841Z,100.00
2023-04-13T23:03:16.971Z,100.00
2023-04-13T23:05:43.766Z,100.00
2023-04-13T23:08:10.572Z,100.00
2023-04-13T23:10:37.327Z,100.00
2023-04-13T23:13:04.715Z,100.00
2023-04-13T23:15:31.433Z,100.00
2023-04-13T23:17:58.114Z,100.00
2023-04-13T23:20:27.228Z,100.00
2023-04-13T23:22:53.971Z,100.00
2023-04-13T23:25:20.706Z,100.00
2023-04-13T23:27:47.392Z,100.00
2023-04-13T23:30:14.107Z,100.00
2023-04-13T23:32:40.838Z,100.00
2023-04-13T23:35:08.272Z,100.00
2023-04-13T23:37:34.924Z,100.00
2023-04-13T23:40:01.584Z,100.00
2023-04-13T23:42:28.629Z,100.00
2023-04-13T23:44:55.382Z,100.00
2023-04-13T23:47:22.347Z,100.00
2023-04-13T23:49:50.731Z,100.00
2023-04-13T23:52:17.661Z,100.00
2023-04-13T23:54:44.364Z,100.00
2023-04-13T23:57:12.711Z,100.00
2023-04-13T23:59:39.712Z,100.00
